aviador You're here:

KPRO Decoded Metar

PERRY MUNI in IA, USA
Report Time2018-01-22 01:55:00
UTC Time2018-01-22 02:07:18
Flight Rules lifr LIFR
Wind050° at 11 kt
W.Decomp.*RWY 04: 10.9 kt HW 1.5 kt RCW
RWY 32: 0.4 kt HW 11.0 kt RCW
W.Rank050° ranks 35
Current wind is above 050° avg. (6.2)
Visibility1609 m
Phenomena:Mist
Clouds:Overcast 003 Hf
Ceiling300 ft
Temp03°C (ISA -10)
Dew Point03°C (100% RH)
AAT-2.5°C
QNH1007 hPa
Density Alt112 ft
Elevation1,010 ft
Report Wrong Elevation
Raw Report
KPRO 220155Z AUTO 05011KT 1SM BR OVC003 03/03 A2974 RMK AO2
T00340032=

Extra information for KPRO:More info

Metar Taf Metar & Taf Last 4 Metars F.Rules Stats Wind Profile Meteogram Temp Stats Airport Information Weather charts Add Link Nearby VenuesMetar ALERT Operation Metar Decoded Social comments

AIRNAV info for KPRO